Norwegian Spirit — C6TQ6 — position and weather

sailwx.info

Track history (hours):
 
Tides and Currents Weather Stations Pressure Air Temp Water Temp Dewpoint Dewpoint Depression Visibility Wind Speed Wind Dir Waves Ship Positions

Norwegian Spirit

Operator: Norwegian Cruise Line

Last reported at 2016-Aug-27 04:33 UTC. Time now 2016-Aug-27 06:25 UTC.
Position N 42°38' E 017°58'.

Type: Passenger vessel. MMSI: 311746000.

Date/timePositionNaut miles runAvg speedWind from/ knotsBaromVisibWave heightAir tempDewpointWater temp
2016-Aug-27 04:33N 42°38' E 017°58'1210.9
2016-Aug-27 03:29N 42°35' E 017°43'14 9.3
2016-Aug-27 02:00N 42°36' E 017°24'9110.7 100 / 131018.0 5.4 26.023.225.0
2016-Aug-26 17:31N 42°52' E 015°23'3610.1
2016-Aug-26 14:00N 43°12' E 014°42'11110.6 350 / 81018.0 5.4 28.025.326.0
2016-Aug-26 03:26N 44°36' E 013°01'13 8.7
2016-Aug-26 02:00N 44°48' E 012°54'815.8 050 / 131018.5 5.4 27.024.325.0
2016-Aug-26 01:29N 44°55' E 012°50'1010.7
2016-Aug-26 00:33N 45°04' E 012°43'1110.7
2016-Aug-25 23:33N 45°11' E 012°32'1110.5
2016-Aug-25 22:33N 45°22' E 012°30'8 8.0
2016-Aug-25 21:33N 45°26' E 012°20'1 1.4
2016-Aug-25 20:32N 45°26' E 012°18'0 0.0
2016-Aug-25 19:32N 45°26' E 012°18'0 0.0
2016-Aug-25 18:32N 45°26' E 012°18'0 0.0
2016-Aug-25 17:32N 45°26' E 012°18'0 0.0
2016-Aug-25 16:32N 45°26' E 012°18'0 0.0
2016-Aug-25 15:32N 45°26' E 012°18'0 0.0
2016-Aug-25 14:32N 45°26' E 012°18'2 4.3
2016-Aug-25 14:00N 45°24' E 012°18'2 4.7 160 / 81019.0 5.4 27.024.326.0
2016-Aug-25 13:29N 45°26' E 012°18'0 0.0
2016-Aug-25 12:32N 45°26' E 012°18'0 0.0
2016-Aug-25 11:32N 45°26' E 012°18'0 0.0
2016-Aug-25 10:32N 45°26' E 012°18'0 0.0
2016-Aug-25 09:33N 45°26' E 012°18'0 0.0
2016-Aug-25 08:32N 45°26' E 012°18'0 0.0
2016-Aug-25 07:29N 45°26' E 012°18'0 0.0
2016-Aug-25 06:30N 45°26' E 012°18'0 0.0
2016-Aug-25 04:32N 45°26' E 012°18'0 0.0
2016-Aug-25 03:32N 45°26' E 012°18'0 0.0
2016-Aug-25 02:33N 45°26' E 012°18'2 4.2
2016-Aug-25 02:00N 45°24' E 012°18'2 5.2 050 / 101020.0 5.4 26.023.226.0
2016-Aug-25 01:32N 45°26' E 012°18'0 0.0
2016-Aug-25 00:33N 45°26' E 012°18'0 0.0
2016-Aug-24 23:32N 45°26' E 012°18'0 0.0
2016-Aug-24 22:33N 45°26' E 012°18'0 0.0
2016-Aug-24 21:29N 45°26' E 012°18'0 0.0
2016-Aug-24 20:30N 45°26' E 012°18'0 0.0
2016-Aug-24 19:33N 45°26' E 012°18'0 0.0
2016-Aug-24 18:33N 45°26' E 012°18'0 0.0
2016-Aug-24 17:32N 45°26' E 012°18'0 0.0
2016-Aug-24 16:29N 45°26' E 012°18'0 0.0
2016-Aug-24 15:29N 45°26' E 012°18'0 0.0
2016-Aug-24 14:30N 45°26' E 012°18'2 4.7
2016-Aug-24 14:00N 45°24' E 012°18'2 4.6 340 / 41020.2 5.4 27.024.326.0
2016-Aug-24 13:29N 45°26' E 012°18'0 0.0
2016-Aug-24 12:33N 45°26' E 012°18'0 0.0
2016-Aug-24 11:33N 45°26' E 012°18'3 3.0
2016-Aug-24 10:33N 45°25' E 012°22'9 9.5
2016-Aug-24 09:33N 45°19' E 012°32'1616.0
2016-Aug-24 08:34N 45°07' E 012°48'1717.1
2016-Aug-24 07:33N 44°51' E 012°57'9817.6
2016-Aug-24 02:00N 43°36' E 014°24'15616.5 340 / 151019.5 5.4 25.022.224.0
2016-Aug-23 16:32N 42°26' E 017°35'1817.9
2016-Aug-23 15:33N 42°36' E 017°55'4 2.5
2016-Aug-23 14:00N 42°36' E 018°00'1 0.1 070 / 51014.0 2.2 30.0 1.621.0
2016-Aug-23 04:33N 42°37' E 017°60'8 7.6
2016-Aug-23 03:33N 42°30' E 017°55'7 7.1
2016-Aug-23 02:32N 42°24' E 017°50'815.5
2016-Aug-23 02:00N 42°18' E 017°42'612.7 050 / 261010.0 5.4 24.021.125.0
2016-Aug-23 01:33N 42°17' E 017°49'8 7.7
2016-Aug-23 00:33N 42°13' E 017°58'8 7.7
2016-Aug-22 23:33N 42°09' E 018°07'8 7.6
2016-Aug-22 22:33N 42°05' E 018°16'6 5.9
2016-Aug-22 21:34N 42°08' E 018°23'7 7.0
2016-Aug-22 20:33N 42°14' E 018°27'8 7.5
2016-Aug-22 19:34N 42°21' E 018°32'6 6.2
2016-Aug-22 18:33N 42°26' E 018°37'6 6.4
2016-Aug-22 17:33N 42°27' E 018°46'0 0.1
2016-Aug-22 16:33N 42°27' E 018°45'0 0.0
2016-Aug-22 15:33N 42°27' E 018°45'0 0.1
2016-Aug-22 14:33N 42°27' E 018°45'4 7.6
2016-Aug-22 14:00N 42°24' E 018°42'4 9.3 320 / 41013.2 5.4 28.019.326.0
2016-Aug-22 13:33N 42°27' E 018°45'0 0.0
2016-Aug-22 12:33N 42°27' E 018°45'0 0.0
2016-Aug-22 11:33N 42°27' E 018°45'0 0.0
2016-Aug-22 10:33N 42°27' E 018°45'0 0.1
2016-Aug-22 09:33N 42°27' E 018°46'0 0.0
2016-Aug-22 08:33N 42°27' E 018°46'0 0.1
2016-Aug-22 07:33N 42°27' E 018°45'1 0.6
2016-Aug-22 06:33N 42°27' E 018°46'0 0.4
2016-Aug-22 05:33N 42°27' E 018°45'6 5.9
2016-Aug-22 04:34N 42°26' E 018°38'5 4.7
2016-Aug-22 03:34N 42°23' E 018°33'1110.6
2016-Aug-22 02:34N 42°12' E 018°35'1221.2
2016-Aug-22 02:00N 42°00' E 018°36'3 7.7 360 / 41012.0 5.4 26.021.726.0
2016-Aug-22 01:34N 41°57' E 018°37'1615.6
2016-Aug-22 00:32N 41°41' E 018°40'1515.6
2016-Aug-21 23:33N 41°26' E 018°43'13215.6
2016-Aug-21 15:04N 39°17' E 019°20'1715.6
2016-Aug-21 14:00N 39°00' E 019°24'5515.9 320 / 101012.0 5.4 26.021.726.0
2016-Aug-21 10:33N 38°11' E 019°56'1615.7
2016-Aug-21 09:33N 37°57' E 020°06'12316.3
2016-Aug-21 02:00N 36°30' E 021°54'6417.4 040 / 141012.0 5.4 25.022.225.0
2016-Aug-20 22:20N 36°25' E 023°13'1316.7
2016-Aug-20 21:34N 36°35' E 023°24'1817.5
2016-Aug-20 20:33N 36°51' E 023°32'1717.4
2016-Aug-20 19:33N 37°08' E 023°37'1717.1
2016-Aug-20 18:33N 37°25' E 023°41'1717.4
2016-Aug-20 17:34N 37°42' E 023°41'1514.5
2016-Aug-20 16:33N 37°56' E 023°38'0 0.3
2016-Aug-20 15:30N 37°56' E 023°38'0 0.0
2016-Aug-20 14:33N 37°56' E 023°38'0 0.0
2016-Aug-20 13:33N 37°56' E 023°38'3 5.1
2016-Aug-20 13:00N 37°54' E 023°36'3 6.4 320 / 141010.2 5.4 32.025.328.0
2016-Aug-20 12:33N 37°56' E 023°38'0 0.0
2016-Aug-20 11:33N 37°56' E 023°38'0 0.0
2016-Aug-20 10:33N 37°56' E 023°38'0 0.0
2016-Aug-20 09:33N 37°56' E 023°38'0 0.0
2016-Aug-20 08:33N 37°56' E 023°38'0 0.0
2016-Aug-20 07:33N 37°56' E 023°38'0 0.0
2016-Aug-20 06:33N 37°56' E 023°38'1 0.9
2016-Aug-20 05:33N 37°56' E 023°37'4 4.5
2016-Aug-20 04:33N 37°52' E 023°38'1010.4
2016-Aug-20 03:33N 37°42' E 023°44'1010.5
2016-Aug-20 02:34N 37°36' E 023°55'1110.7
2016-Aug-20 01:33N 37°37' E 024°08'1211.0
2016-Aug-20 00:28N 37°47' E 024°18'1011.0
2016-Aug-19 23:33N 37°52' E 024°28'46 9.2
2016-Aug-19 18:33N 37°55' E 025°27'7 6.8
2016-Aug-19 17:33N 37°50' E 025°32'6 6.4
2016-Aug-19 16:33N 37°44' E 025°35'1110.9
2016-Aug-19 15:34N 37°35' E 025°26'10 9.4
2016-Aug-19 14:31N 37°27' E 025°19'0 0.1
2016-Aug-19 13:31N 37°27' E 025°19'3 6.0
2016-Aug-19 13:00N 37°24' E 025°18'3 6.5 360 / 331007.8 5.4 25.022.224.0
2016-Aug-19 12:31N 37°27' E 025°19'0 0.0
2016-Aug-19 11:31N 37°27' E 025°19'0 0.0
2016-Aug-19 10:31N 37°27' E 025°19'0 0.0
2016-Aug-19 09:25N 37°27' E 025°19'0 0.0
2016-Aug-19 08:33N 37°27' E 025°19'0 0.0
2016-Aug-19 07:33N 37°27' E 025°19'0 0.0
2016-Aug-19 06:33N 37°27' E 025°19'0 0.0
2016-Aug-19 05:33N 37°27' E 025°19'8 7.6
2016-Aug-19 04:33N 37°27' E 025°10'1616.1
2016-Aug-19 03:33N 37°18' E 024°54'2617.0
2016-Aug-19 02:03N 37°02' E 024°28'23343.5
2016-Aug-19 02:00N 36°48' E 024°06'1433.1 120 / 61007.0 2.2 25.023.625.0
2016-Aug-19 01:33N 36°58' E 024°19'1716.9
2016-Aug-19 00:33N 36°48' E 024°02'1716.9
2016-Aug-18 23:33N 36°38' E 023°45'1717.4
2016-Aug-18 22:33N 36°28' E 023°27'18221.3
2016-Aug-18 14:00N 36°54' E 019°42'17318.3 250 / 121012.0 5.4 26.023.226.0
2016-Aug-18 04:32N 37°42' E 016°13'2020.1
2016-Aug-18 03:33N 37°48' E 015°49'1818.0
2016-Aug-18 02:33N 38°01' E 015°34'1616.4
2016-Aug-18 01:33N 38°17' E 015°41'1716.5
2016-Aug-18 00:33N 38°32' E 015°33'2020.5
2016-Aug-17 23:33N 38°51' E 015°23'2120.7
2016-Aug-17 22:33N 39°10' E 015°12'2321.0
2016-Aug-17 21:27N 39°31' E 014°59'6020.7
2016-Aug-17 18:33N 40°24' E 014°22'2019.9
2016-Aug-17 17:33N 40°43' E 014°16'7 2.8
2016-Aug-17 15:04N 40°50' E 014°16'0 0.0
2016-Aug-17 14:28N 40°50' E 014°16'4 0.4
2016-Aug-17 06:00N 40°48' E 014°12'4 7.3 160 / 31013.0 5.4 24.021.125.0
2016-Aug-17 05:30N 40°50' E 014°16'7 7.5
2016-Aug-17 04:33N 40°44' E 014°12'  
Track history (hours):
 
Tides and Currents Weather Stations Pressure Air Temp Water Temp Dewpoint Dewpoint Depression Visibility Wind Speed Wind Dir Waves Ship Positions

Norwegian Spirit

Operator: Norwegian Cruise Line

Last reported at 2016-Aug-27 04:33 UTC. Time now 2016-Aug-27 06:25 UTC.
Position N 42°38' E 017°58'.

Type: Passenger vessel. MMSI: 311746000.

Date/timePositionNaut miles runAvg speedWind from/ knotsBaromVisibWave heightAir tempDewpointWater temp
2016-Aug-27 04:33N 42°38' E 017°58'1210.9
2016-Aug-27 03:29N 42°35' E 017°43'14 9.3
2016-Aug-27 02:00N 42°36' E 017°24'9110.7 100 / 131018.0 5.4 26.023.225.0
2016-Aug-26 17:31N 42°52' E 015°23'3610.1
2016-Aug-26 14:00N 43°12' E 014°42'11110.6 350 / 81018.0 5.4 28.025.326.0
2016-Aug-26 03:26N 44°36' E 013°01'13 8.7
2016-Aug-26 02:00N 44°48' E 012°54'815.8 050 / 131018.5 5.4 27.024.325.0
2016-Aug-26 01:29N 44°55' E 012°50'1010.7
2016-Aug-26 00:33N 45°04' E 012°43'1110.7
2016-Aug-25 23:33N 45°11' E 012°32'1110.5
2016-Aug-25 22:33N 45°22' E 012°30'8 8.0
2016-Aug-25 21:33N 45°26' E 012°20'1 1.4
2016-Aug-25 20:32N 45°26' E 012°18'0 0.0
2016-Aug-25 19:32N 45°26' E 012°18'0 0.0
2016-Aug-25 18:32N 45°26' E 012°18'0 0.0
2016-Aug-25 17:32N 45°26' E 012°18'0 0.0
2016-Aug-25 16:32N 45°26' E 012°18'0 0.0
2016-Aug-25 15:32N 45°26' E 012°18'0 0.0
2016-Aug-25 14:32N 45°26' E 012°18'2 4.3
2016-Aug-25 14:00N 45°24' E 012°18'2 4.7 160 / 81019.0 5.4 27.024.326.0
2016-Aug-25 13:29N 45°26' E 012°18'0 0.0
2016-Aug-25 12:32N 45°26' E 012°18'0 0.0
2016-Aug-25 11:32N 45°26' E 012°18'0 0.0
2016-Aug-25 10:32N 45°26' E 012°18'0 0.0
2016-Aug-25 09:33N 45°26' E 012°18'0 0.0
2016-Aug-25 08:32N 45°26' E 012°18'0 0.0
2016-Aug-25 07:29N 45°26' E 012°18'0 0.0
2016-Aug-25 06:30N 45°26' E 012°18'0 0.0
2016-Aug-25 04:32N 45°26' E 012°18'0 0.0
2016-Aug-25 03:32N 45°26' E 012°18'0 0.0
2016-Aug-25 02:33N 45°26' E 012°18'2 4.2
2016-Aug-25 02:00N 45°24' E 012°18'2 5.2 050 / 101020.0 5.4 26.023.226.0
2016-Aug-25 01:32N 45°26' E 012°18'0 0.0
2016-Aug-25 00:33N 45°26' E 012°18'0 0.0
2016-Aug-24 23:32N 45°26' E 012°18'0 0.0
2016-Aug-24 22:33N 45°26' E 012°18'0 0.0
2016-Aug-24 21:29N 45°26' E 012°18'0 0.0
2016-Aug-24 20:30N 45°26' E 012°18'0 0.0
2016-Aug-24 19:33N 45°26' E 012°18'0 0.0
2016-Aug-24 18:33N 45°26' E 012°18'0 0.0
2016-Aug-24 17:32N 45°26' E 012°18'0 0.0
2016-Aug-24 16:29N 45°26' E 012°18'0 0.0
2016-Aug-24 15:29N 45°26' E 012°18'0 0.0
2016-Aug-24 14:30N 45°26' E 012°18'2 4.7
2016-Aug-24 14:00N 45°24' E 012°18'2 4.6 340 / 41020.2 5.4 27.024.326.0
2016-Aug-24 13:29N 45°26' E 012°18'0 0.0
2016-Aug-24 12:33N 45°26' E 012°18'0 0.0
2016-Aug-24 11:33N 45°26' E 012°18'3 3.0
2016-Aug-24 10:33N 45°25' E 012°22'9 9.5
2016-Aug-24 09:33N 45°19' E 012°32'1616.0
2016-Aug-24 08:34N 45°07' E 012°48'1717.1
2016-Aug-24 07:33N 44°51' E 012°57'9817.6
2016-Aug-24 02:00N 43°36' E 014°24'15616.5 340 / 151019.5 5.4 25.022.224.0
2016-Aug-23 16:32N 42°26' E 017°35'1817.9
2016-Aug-23 15:33N 42°36' E 017°55'4 2.5
2016-Aug-23 14:00N 42°36' E 018°00'1 0.1 070 / 51014.0 2.2 30.0 1.621.0
2016-Aug-23 04:33N 42°37' E 017°60'8 7.6
2016-Aug-23 03:33N 42°30' E 017°55'7 7.1
2016-Aug-23 02:32N 42°24' E 017°50'815.5
2016-Aug-23 02:00N 42°18' E 017°42'612.7 050 / 261010.0 5.4 24.021.125.0
2016-Aug-23 01:33N 42°17' E 017°49'8 7.7
2016-Aug-23 00:33N 42°13' E 017°58'8 7.7
2016-Aug-22 23:33N 42°09' E 018°07'8 7.6
2016-Aug-22 22:33N 42°05' E 018°16'6 5.9
2016-Aug-22 21:34N 42°08' E 018°23'7 7.0
2016-Aug-22 20:33N 42°14' E 018°27'8 7.5
2016-Aug-22 19:34N 42°21' E 018°32'6 6.2
2016-Aug-22 18:33N 42°26' E 018°37'6 6.4
2016-Aug-22 17:33N 42°27' E 018°46'0 0.1
2016-Aug-22 16:33N 42°27' E 018°45'0 0.0
2016-Aug-22 15:33N 42°27' E 018°45'0 0.1
2016-Aug-22 14:33N 42°27' E 018°45'4 7.6
2016-Aug-22 14:00N 42°24' E 018°42'4 9.3 320 / 41013.2 5.4 28.019.326.0
2016-Aug-22 13:33N 42°27' E 018°45'0 0.0
2016-Aug-22 12:33N 42°27' E 018°45'0 0.0
2016-Aug-22 11:33N 42°27' E 018°45'0 0.0
2016-Aug-22 10:33N 42°27' E 018°45'0 0.1
2016-Aug-22 09:33N 42°27' E 018°46'0 0.0
2016-Aug-22 08:33N 42°27' E 018°46'0 0.1
2016-Aug-22 07:33N 42°27' E 018°45'1 0.6
2016-Aug-22 06:33N 42°27' E 018°46'0 0.4
2016-Aug-22 05:33N 42°27' E 018°45'6 5.9
2016-Aug-22 04:34N 42°26' E 018°38'5 4.7
2016-Aug-22 03:34N 42°23' E 018°33'1110.6
2016-Aug-22 02:34N 42°12' E 018°35'1221.2
2016-Aug-22 02:00N 42°00' E 018°36'3 7.7 360 / 41012.0 5.4 26.021.726.0
2016-Aug-22 01:34N 41°57' E 018°37'1615.6
2016-Aug-22 00:32N 41°41' E 018°40'1515.6
2016-Aug-21 23:33N 41°26' E 018°43'13215.6
2016-Aug-21 15:04N 39°17' E 019°20'1715.6
2016-Aug-21 14:00N 39°00' E 019°24'5515.9 320 / 101012.0 5.4 26.021.726.0
2016-Aug-21 10:33N 38°11' E 019°56'1615.7
2016-Aug-21 09:33N 37°57' E 020°06'12316.3
2016-Aug-21 02:00N 36°30' E 021°54'6417.4 040 / 141012.0 5.4 25.022.225.0
2016-Aug-20 22:20N 36°25' E 023°13'1316.7
2016-Aug-20 21:34N 36°35' E 023°24'1817.5
2016-Aug-20 20:33N 36°51' E 023°32'1717.4
2016-Aug-20 19:33N 37°08' E 023°37'1717.1
2016-Aug-20 18:33N 37°25' E 023°41'1717.4
2016-Aug-20 17:34N 37°42' E 023°41'1514.5
2016-Aug-20 16:33N 37°56' E 023°38'0 0.3
2016-Aug-20 15:30N 37°56' E 023°38'0 0.0
2016-Aug-20 14:33N 37°56' E 023°38'0 0.0
2016-Aug-20 13:33N 37°56' E 023°38'3 5.1
2016-Aug-20 13:00N 37°54' E 023°36'3 6.4 320 / 141010.2 5.4 32.025.328.0
2016-Aug-20 12:33N 37°56' E 023°38'0 0.0
2016-Aug-20 11:33N 37°56' E 023°38'0 0.0
2016-Aug-20 10:33N 37°56' E 023°38'0 0.0
2016-Aug-20 09:33N 37°56' E 023°38'0 0.0
2016-Aug-20 08:33N 37°56' E 023°38'0 0.0
2016-Aug-20 07:33N 37°56' E 023°38'0 0.0
2016-Aug-20 06:33N 37°56' E 023°38'1 0.9
2016-Aug-20 05:33N 37°56' E 023°37'4 4.5
2016-Aug-20 04:33N 37°52' E 023°38'1010.4
2016-Aug-20 03:33N 37°42' E 023°44'1010.5
2016-Aug-20 02:34N 37°36' E 023°55'1110.7
2016-Aug-20 01:33N 37°37' E 024°08'1211.0
2016-Aug-20 00:28N 37°47' E 024°18'1011.0
2016-Aug-19 23:33N 37°52' E 024°28'46 9.2
2016-Aug-19 18:33N 37°55' E 025°27'7 6.8
2016-Aug-19 17:33N 37°50' E 025°32'6 6.4
2016-Aug-19 16:33N 37°44' E 025°35'1110.9
2016-Aug-19 15:34N 37°35' E 025°26'10 9.4
2016-Aug-19 14:31N 37°27' E 025°19'0 0.1
2016-Aug-19 13:31N 37°27' E 025°19'3 6.0
2016-Aug-19 13:00N 37°24' E 025°18'3 6.5 360 / 331007.8 5.4 25.022.224.0
2016-Aug-19 12:31N 37°27' E 025°19'0 0.0
2016-Aug-19 11:31N 37°27' E 025°19'0 0.0
2016-Aug-19 10:31N 37°27' E 025°19'0 0.0
2016-Aug-19 09:25N 37°27' E 025°19'0 0.0
2016-Aug-19 08:33N 37°27' E 025°19'0 0.0
2016-Aug-19 07:33N 37°27' E 025°19'0 0.0
2016-Aug-19 06:33N 37°27' E 025°19'0 0.0
2016-Aug-19 05:33N 37°27' E 025°19'8 7.6
2016-Aug-19 04:33N 37°27' E 025°10'1616.1
2016-Aug-19 03:33N 37°18' E 024°54'2617.0
2016-Aug-19 02:03N 37°02' E 024°28'23343.5
2016-Aug-19 02:00N 36°48' E 024°06'1433.1 120 / 61007.0 2.2 25.023.625.0
2016-Aug-19 01:33N 36°58' E 024°19'1716.9
2016-Aug-19 00:33N 36°48' E 024°02'1716.9
2016-Aug-18 23:33N 36°38' E 023°45'1717.4
2016-Aug-18 22:33N 36°28' E 023°27'18221.3
2016-Aug-18 14:00N 36°54' E 019°42'17318.3 250 / 121012.0 5.4 26.023.226.0
2016-Aug-18 04:32N 37°42' E 016°13'2020.1
2016-Aug-18 03:33N 37°48' E 015°49'1818.0
2016-Aug-18 02:33N 38°01' E 015°34'1616.4
2016-Aug-18 01:33N 38°17' E 015°41'1716.5
2016-Aug-18 00:33N 38°32' E 015°33'2020.5
2016-Aug-17 23:33N 38°51' E 015°23'2120.7
2016-Aug-17 22:33N 39°10' E 015°12'2321.0
2016-Aug-17 21:27N 39°31' E 014°59'6020.7
2016-Aug-17 18:33N 40°24' E 014°22'2019.9
2016-Aug-17 17:33N 40°43' E 014°16'7 2.8
2016-Aug-17 15:04N 40°50' E 014°16'0 0.0
2016-Aug-17 14:28N 40°50' E 014°16'4 0.4
2016-Aug-17 06:00N 40°48' E 014°12'4 7.3 160 / 31013.0 5.4 24.021.125.0
2016-Aug-17 05:30N 40°50' E 014°16'7 7.5
2016-Aug-17 04:33N 40°44' E 014°12'  

Dump ship's entire track history